createdAt,value
2022-10-05T00:09:59.440Z,1020.58
2022-10-05T00:20:06.548Z,1020.62
2022-10-05T00:30:13.441Z,1020.37
2022-10-05T00:40:20.461Z,1020.49
2022-10-05T00:50:27.437Z,1020.47
2022-10-05T01:00:34.106Z,1020.31
2022-10-05T01:10:41.311Z,1020.18
2022-10-05T01:20:48.009Z,1020.19
2022-10-05T01:30:54.355Z,1020.06
2022-10-05T01:41:01.093Z,1020.02
2022-10-05T01:51:07.916Z,1020.10
2022-10-05T02:01:14.774Z,1019.97
2022-10-05T02:11:21.361Z,1020.11
2022-10-05T02:21:28.227Z,1020.18
2022-10-05T02:31:35.223Z,1020.18
2022-10-05T02:41:41.853Z,1020.10
2022-10-05T02:51:48.833Z,1020.10
2022-10-05T03:01:55.941Z,1020.11
2022-10-05T03:12:03.012Z,1020.01
2022-10-05T03:22:09.252Z,1020.00
2022-10-05T03:32:15.995Z,1019.87
2022-10-05T03:42:22.793Z,1019.80
2022-10-05T03:52:29.943Z,1019.67
2022-10-05T04:02:36.889Z,1019.53
2022-10-05T04:12:44.298Z,1019.43
2022-10-05T04:22:51.084Z,1019.48
2022-10-05T04:32:58.358Z,1019.53
2022-10-05T04:43:05.837Z,1019.48
2022-10-05T04:53:12.810Z,1019.43
2022-10-05T05:03:19.994Z,1019.50
2022-10-05T05:13:26.570Z,1019.50
2022-10-05T05:23:33.780Z,1019.47
2022-10-05T05:33:40.384Z,1019.51
2022-10-05T05:43:47.338Z,1019.30
2022-10-05T05:53:54.472Z,1019.18
2022-10-05T06:04:01.859Z,1019.39
2022-10-05T06:14:08.951Z,1019.35
2022-10-05T06:24:15.941Z,1019.47
2022-10-05T06:34:23.371Z,1019.47
2022-10-05T06:44:30.160Z,1019.53
2022-10-05T06:54:36.953Z,1019.59
2022-10-05T07:04:43.877Z,1019.73
2022-10-05T07:14:50.908Z,1019.58
2022-10-05T07:24:57.995Z,1019.60
2022-10-05T07:35:04.694Z,1019.52
2022-10-05T07:45:11.448Z,1019.55
2022-10-05T07:55:18.401Z,1019.66
2022-10-05T08:05:25.086Z,1019.56
2022-10-05T08:15:31.819Z,1019.77
2022-10-05T08:25:38.748Z,1019.31
2022-10-05T08:35:45.838Z,1019.26
2022-10-05T08:45:52.979Z,1019.01
2022-10-05T08:56:00.120Z,1018.99
2022-10-05T09:06:06.841Z,1019.01
2022-10-05T09:16:14.209Z,1018.90
2022-10-05T09:26:20.633Z,1018.83
2022-10-05T09:36:27.674Z,1018.83
2022-10-05T09:46:35.931Z,1018.71
2022-10-05T09:56:42.362Z,1018.70
2022-10-05T10:06:49.000Z,1018.63
2022-10-05T10:16:56.171Z,1018.63
2022-10-05T10:27:02.826Z,1018.47
2022-10-05T10:37:09.210Z,1018.50
2022-10-05T10:47:15.752Z,1018.63
2022-10-05T10:57:22.094Z,1018.66
2022-10-05T11:07:28.472Z,1018.53
2022-10-05T11:17:34.615Z,1018.36
2022-10-05T11:27:41.748Z,1018.27
2022-10-05T11:37:47.822Z,1018.13
2022-10-05T11:47:54.704Z,1018.02
2022-10-05T11:58:00.888Z,1018.01
2022-10-05T12:08:07.455Z,1017.89
2022-10-05T12:18:14.419Z,1017.81
2022-10-05T12:28:21.230Z,1017.71
2022-10-05T12:38:28.041Z,1017.61
2022-10-05T12:48:34.662Z,1017.52
2022-10-05T12:58:41.096Z,1017.46
2022-10-05T13:08:48.260Z,1017.43
2022-10-05T13:18:54.782Z,1017.40
2022-10-05T13:29:01.581Z,1017.35
2022-10-05T13:39:08.494Z,1017.35
2022-10-05T13:49:15.232Z,1017.23
2022-10-05T13:59:22.266Z,1017.24
2022-10-05T14:09:28.918Z,1017.20
2022-10-05T14:19:35.929Z,1017.09
2022-10-05T14:29:41.995Z,1017.02
2022-10-05T14:39:48.778Z,1016.88
2022-10-05T14:49:56.012Z,1016.73
2022-10-05T15:00:02.843Z,1016.64
2022-10-05T15:10:09.335Z,1016.59
2022-10-05T15:20:15.949Z,1016.59
2022-10-05T15:30:22.925Z,1016.60
2022-10-05T15:40:29.758Z,1016.63
2022-10-05T15:50:36.126Z,1016.61
2022-10-05T16:00:42.506Z,1016.61
2022-10-05T16:10:49.350Z,1016.64
2022-10-05T16:20:55.938Z,1016.57
2022-10-05T16:31:02.525Z,1016.52
2022-10-05T16:41:09.693Z,1016.45
2022-10-05T16:51:16.575Z,1016.42
2022-10-05T17:01:23.471Z,1016.48
2022-10-05T17:11:30.284Z,1016.50
2022-10-05T17:21:37.253Z,1016.58
2022-10-05T17:31:43.847Z,1016.60
2022-10-05T17:41:50.944Z,1016.63
2022-10-05T17:51:57.739Z,1016.67
2022-10-05T18:02:04.381Z,1016.69
2022-10-05T18:12:11.408Z,1016.58
2022-10-05T18:22:18.400Z,1016.53
2022-10-05T18:32:25.472Z,1016.57
2022-10-05T18:42:32.441Z,1016.58
2022-10-05T18:52:39.531Z,1016.55
2022-10-05T19:02:46.795Z,1016.57
2022-10-05T19:12:53.697Z,1016.57
2022-10-05T19:23:00.650Z,1016.64
2022-10-05T19:33:07.783Z,1016.79
2022-10-05T19:43:14.772Z,1016.88
2022-10-05T19:53:21.909Z,1017.02
2022-10-05T20:03:28.946Z,1017.13
2022-10-05T20:13:35.637Z,1017.18
2022-10-05T20:23:41.869Z,1017.34
2022-10-05T20:33:48.934Z,1017.50
2022-10-05T20:43:56.019Z,1017.68
2022-10-05T20:54:02.948Z,1017.80
2022-10-05T21:04:09.710Z,1017.86
2022-10-05T21:14:16.907Z,1017.90
2022-10-05T21:24:23.768Z,1017.98
2022-10-05T21:34:30.410Z,1017.98
2022-10-05T21:44:37.493Z,1018.10
2022-10-05T21:54:44.440Z,1018.18
2022-10-05T22:04:51.299Z,1018.17
2022-10-05T22:14:57.981Z,1018.21
2022-10-05T22:25:04.685Z,1018.23
2022-10-05T22:35:12.066Z,1018.30
2022-10-05T22:45:18.631Z,1018.39
2022-10-05T22:55:25.938Z,1018.36
2022-10-05T23:05:32.848Z,1018.45
2022-10-05T23:15:39.842Z,1018.55
2022-10-05T23:25:46.734Z,1018.63
2022-10-05T23:35:54.149Z,1018.67
2022-10-05T23:46:00.844Z,1018.71
2022-10-05T23:56:07.476Z,1018.83
